createdAt,value
2023-02-19T00:02:15.064Z,5.55
2023-02-19T00:04:45.530Z,6.00
2023-02-19T00:07:14.617Z,5.22
2023-02-19T00:09:43.655Z,5.55
2023-02-19T00:12:12.845Z,6.13
2023-02-19T00:14:42.022Z,5.75
2023-02-19T00:17:11.148Z,4.85
2023-02-19T00:19:40.084Z,6.80
2023-02-19T00:22:10.691Z,5.43
2023-02-19T00:24:39.845Z,5.43
2023-02-19T00:27:08.791Z,5.68
2023-02-19T00:29:37.754Z,5.38
2023-02-19T00:32:06.811Z,5.30
2023-02-19T00:34:37.733Z,6.40
2023-02-19T00:37:06.951Z,6.20
2023-02-19T00:39:37.432Z,6.57
2023-02-19T00:42:06.445Z,5.20
2023-02-19T00:44:35.432Z,5.78
2023-02-19T00:47:04.572Z,4.60
2023-02-19T00:49:33.655Z,5.80
2023-02-19T00:52:02.662Z,4.50
2023-02-19T00:54:32.076Z,4.28
2023-02-19T00:57:02.590Z,5.65
2023-02-19T00:59:31.838Z,5.43
2023-02-19T01:02:00.929Z,5.75
2023-02-19T01:04:30.516Z,4.22
2023-02-19T01:06:59.542Z,4.53
2023-02-19T01:09:28.835Z,4.75
2023-02-19T01:11:58.275Z,5.18
2023-02-19T01:14:29.134Z,5.10
2023-02-19T01:16:58.211Z,4.85
2023-02-19T01:19:27.325Z,3.97
2023-02-19T01:21:56.627Z,4.70
2023-02-19T01:24:25.698Z,4.43
2023-02-19T01:26:54.708Z,4.75
2023-02-19T01:29:23.854Z,4.50
2023-02-19T01:31:54.423Z,4.57
2023-02-19T01:34:23.751Z,4.63
2023-02-19T01:36:52.767Z,5.13
2023-02-19T01:39:21.766Z,4.07
2023-02-19T01:41:50.724Z,4.63
2023-02-19T01:44:56.642Z,4.97
2023-02-19T01:47:27.128Z,4.50
2023-02-19T01:49:58.490Z,5.32
2023-02-19T01:52:32.730Z,4.32
2023-02-19T01:55:03.860Z,4.78
2023-02-19T01:57:37.161Z,4.15
2023-02-19T02:00:11.334Z,4.47
2023-02-19T02:02:48.724Z,3.42
2023-02-19T02:05:25.297Z,3.90
2023-02-19T02:08:12.328Z,3.97
2023-02-19T02:10:41.602Z,4.22
2023-02-19T02:13:11.031Z,3.88
2023-02-19T02:15:51.115Z,4.18
2023-02-19T02:18:33.086Z,3.80
2023-02-19T02:21:20.008Z,4.55
2023-02-19T02:24:11.558Z,4.07
2023-02-19T02:26:53.481Z,3.53
2023-02-19T02:30:01.574Z,3.60
2023-02-19T02:32:39.803Z,3.50
2023-02-19T02:35:12.475Z,4.10
2023-02-19T02:37:45.232Z,3.13
2023-02-19T02:40:14.478Z,3.17
2023-02-19T02:42:45.005Z,3.45
2023-02-19T02:45:38.500Z,4.03
2023-02-19T02:48:47.284Z,3.72
2023-02-19T02:51:22.325Z,3.50
2023-02-19T02:54:35.262Z,3.45
2023-02-19T03:02:19.210Z,3.67
2023-02-19T03:05:12.889Z,4.18
2023-02-19T03:07:47.671Z,3.60
2023-02-19T03:10:21.891Z,4.40
2023-02-19T03:13:09.567Z,4.43
2023-02-19T03:16:03.468Z,4.15
2023-02-19T03:18:54.786Z,3.17
2023-02-19T03:21:25.373Z,4.28
2023-02-19T03:24:13.949Z,4.20
2023-02-19T03:26:45.330Z,3.70
2023-02-19T03:29:26.288Z,4.65
2023-02-19T03:32:06.522Z,4.43
2023-02-19T03:34:41.765Z,3.60
2023-02-19T03:37:15.003Z,4.60
2023-02-19T03:39:47.924Z,4.72
2023-02-19T03:42:36.729Z,3.83
2023-02-19T03:45:26.441Z,4.18
2023-02-19T03:48:04.340Z,4.22
2023-02-19T03:50:44.126Z,4.68
2023-02-19T03:53:19.712Z,4.65
2023-02-19T03:56:01.640Z,4.00
2023-02-19T03:58:36.854Z,4.40
2023-02-19T04:01:12.422Z,3.80
2023-02-19T04:03:46.671Z,4.40
2023-02-19T04:06:22.313Z,4.20
2023-02-19T04:08:56.034Z,3.47
2023-02-19T04:11:28.702Z,4.75
2023-02-19T04:14:09.213Z,4.90
2023-02-19T04:16:42.767Z,4.90
2023-02-19T04:19:15.223Z,4.03
2023-02-19T04:21:47.945Z,4.22
2023-02-19T04:24:23.831Z,4.43
2023-02-19T04:26:54.112Z,4.72
2023-02-19T04:29:23.162Z,4.45
2023-02-19T04:31:52.494Z,5.05
2023-02-19T04:34:21.686Z,4.50
2023-02-19T04:36:52.168Z,4.65
2023-02-19T04:39:21.289Z,3.50
2023-02-19T04:41:51.317Z,3.90
2023-02-19T04:44:20.339Z,4.15
2023-02-19T04:46:49.484Z,4.00
2023-02-19T04:49:18.565Z,4.57
2023-02-19T04:51:47.679Z,3.78
2023-02-19T04:54:18.341Z,4.32
2023-02-19T04:56:47.551Z,4.20
2023-02-19T04:59:16.619Z,4.00
2023-02-19T05:01:45.724Z,4.30
2023-02-19T05:04:14.875Z,4.30
2023-02-19T05:06:44.313Z,4.47
2023-02-19T05:09:13.395Z,3.15
2023-02-19T05:11:43.953Z,4.78
2023-02-19T05:14:12.938Z,4.13
2023-02-19T05:16:42.410Z,3.85
2023-02-19T05:19:12.929Z,3.58
2023-02-19T05:21:41.940Z,4.05
2023-02-19T05:24:11.182Z,4.22
2023-02-19T05:26:40.286Z,4.00
2023-02-19T05:29:10.838Z,4.40
2023-02-19T05:31:39.962Z,3.70
2023-02-19T05:34:09.005Z,3.65
2023-02-19T05:36:38.721Z,4.35
2023-02-19T05:39:08.664Z,4.00
2023-02-19T05:41:37.622Z,3.47
2023-02-19T05:44:06.693Z,3.97
2023-02-19T05:46:37.169Z,3.47
2023-02-19T05:49:06.306Z,4.05
2023-02-19T05:51:35.533Z,4.03
2023-02-19T05:54:05.152Z,3.33
2023-02-19T05:56:35.979Z,3.88
2023-02-19T05:59:08.138Z,3.47
2023-02-19T06:01:38.705Z,3.47
2023-02-19T06:04:07.776Z,3.25
2023-02-19T06:06:37.340Z,4.13
2023-02-19T06:09:06.827Z,3.95
2023-02-19T06:11:36.659Z,3.85
2023-02-19T06:14:06.321Z,3.33
2023-02-19T06:16:35.454Z,4.10
2023-02-19T06:19:06.292Z,3.45
2023-02-19T06:21:35.511Z,3.70
2023-02-19T06:24:08.686Z,3.70
2023-02-19T06:26:38.244Z,3.60
2023-02-19T06:29:07.263Z,3.85
2023-02-19T06:31:36.610Z,3.50
2023-02-19T06:34:07.754Z,3.33
2023-02-19T06:36:36.821Z,3.58
2023-02-19T06:39:06.866Z,4.18
2023-02-19T06:41:36.328Z,4.20
2023-02-19T06:44:05.597Z,3.80
2023-02-19T06:46:35.914Z,3.30
2023-02-19T06:49:05.900Z,3.97
2023-02-19T06:51:36.452Z,3.42
2023-02-19T06:54:05.670Z,3.38
2023-02-19T06:56:36.518Z,3.20
2023-02-19T06:59:08.661Z,3.85
2023-02-19T07:01:38.417Z,3.50
2023-02-19T07:04:08.797Z,3.85
2023-02-19T07:06:40.193Z,3.25
2023-02-19T07:09:10.780Z,3.03
2023-02-19T07:11:40.842Z,3.45
2023-02-19T07:14:15.274Z,3.20
2023-02-19T07:16:44.738Z,3.83
2023-02-19T07:19:15.839Z,3.08
2023-02-19T07:21:46.281Z,4.47
2023-02-19T07:24:15.330Z,3.70
2023-02-19T07:26:44.340Z,3.88
2023-02-19T07:29:13.365Z,3.72
2023-02-19T07:31:42.451Z,3.25
2023-02-19T07:34:11.506Z,3.88
2023-02-19T07:36:40.521Z,3.65
2023-02-19T07:39:14.860Z,3.03
2023-02-19T07:41:44.100Z,3.58
2023-02-19T07:44:19.806Z,3.53
2023-02-19T07:46:48.824Z,3.50
2023-02-19T07:49:18.063Z,3.92
2023-02-19T07:51:47.286Z,3.55
2023-02-19T07:54:17.668Z,3.33
2023-02-19T07:56:46.721Z,3.45
2023-02-19T07:59:16.054Z,3.47
2023-02-19T08:02:02.502Z,3.58
2023-02-19T08:04:31.530Z,4.00
2023-02-19T08:07:00.556Z,3.85
2023-02-19T08:09:31.086Z,3.95
2023-02-19T08:12:17.655Z,3.22
2023-02-19T08:14:46.677Z,3.53
2023-02-19T08:17:15.767Z,3.15
2023-02-19T08:19:45.269Z,3.60
2023-02-19T08:22:16.435Z,3.85
2023-02-19T08:24:47.336Z,3.28
2023-02-19T08:27:16.674Z,3.50
2023-02-19T08:29:45.786Z,4.15
2023-02-19T08:32:14.943Z,4.10
2023-02-19T08:34:44.144Z,3.97
2023-02-19T08:37:13.189Z,2.95
2023-02-19T08:39:42.208Z,4.13
2023-02-19T08:42:12.655Z,3.58
2023-02-19T08:44:42.468Z,4.43
2023-02-19T08:47:15.425Z,3.85
2023-02-19T08:49:44.442Z,3.97
2023-02-19T08:52:13.628Z,4.07
2023-02-19T08:54:43.572Z,4.13
2023-02-19T08:57:14.392Z,4.10
2023-02-19T08:59:44.622Z,3.88
2023-02-19T09:02:14.018Z,4.82
2023-02-19T09:04:43.035Z,4.22
2023-02-19T09:07:14.004Z,4.22
2023-02-19T09:10:10.121Z,4.88
2023-02-19T09:12:42.250Z,4.43
2023-02-19T09:15:11.572Z,4.57
2023-02-19T09:17:40.552Z,4.30
2023-02-19T09:20:10.811Z,4.28
2023-02-19T09:22:39.832Z,4.20
2023-02-19T09:25:09.255Z,4.30
2023-02-19T09:27:38.386Z,4.20
2023-02-19T09:30:10.463Z,4.07
2023-02-19T09:32:39.522Z,4.88
2023-02-19T09:35:09.093Z,4.97
2023-02-19T09:37:38.096Z,4.20
2023-02-19T09:40:07.710Z,4.22
2023-02-19T09:42:37.201Z,4.35
2023-02-19T09:45:07.043Z,4.45
2023-02-19T09:47:37.555Z,3.95
2023-02-19T09:50:09.681Z,4.78
2023-02-19T09:52:42.263Z,4.75
2023-02-19T09:55:18.767Z,3.75
2023-02-19T09:57:49.729Z,4.18
2023-02-19T10:00:23.857Z,4.65
2023-02-19T10:02:56.108Z,4.38
2023-02-19T10:05:27.307Z,4.68
2023-02-19T10:07:57.896Z,4.88
2023-02-19T10:10:31.490Z,4.20
2023-02-19T10:13:13.380Z,4.03
2023-02-19T10:15:48.377Z,3.95
2023-02-19T10:18:24.289Z,4.43
2023-02-19T10:20:54.414Z,4.35
2023-02-19T10:23:25.154Z,4.63
2023-02-19T10:25:57.259Z,5.07
2023-02-19T10:28:30.284Z,5.03
2023-02-19T10:31:01.023Z,4.60
2023-02-19T10:33:31.498Z,5.18
2023-02-19T10:36:03.600Z,4.70
2023-02-19T10:38:35.675Z,4.57
2023-02-19T10:41:08.047Z,5.20
2023-02-19T10:43:41.011Z,4.65
2023-02-19T10:46:19.050Z,5.03
2023-02-19T10:48:54.306Z,4.70
2023-02-19T10:51:31.994Z,5.32
2023-02-19T10:54:09.256Z,5.50
2023-02-19T10:56:40.911Z,5.78
2023-02-19T10:59:23.644Z,4.60
2023-02-19T11:01:57.923Z,5.32
2023-02-19T11:04:30.180Z,4.60
2023-02-19T11:06:59.276Z,5.25
2023-02-19T11:09:32.701Z,5.32
2023-02-19T11:12:01.885Z,4.55
2023-02-19T11:14:33.378Z,5.68
2023-02-19T11:17:06.075Z,4.72
2023-02-19T11:19:40.192Z,5.47
2023-02-19T11:22:29.525Z,5.13
2023-02-19T11:25:05.075Z,5.18
2023-02-19T11:27:34.820Z,5.28
2023-02-19T11:30:38.964Z,6.22
2023-02-19T11:33:27.045Z,4.72
2023-02-19T11:36:18.793Z,5.50
2023-02-19T11:38:47.895Z,6.20
2023-02-19T11:41:27.186Z,5.55
2023-02-19T11:44:12.045Z,4.65
2023-02-19T11:46:52.681Z,5.90
2023-02-19T11:49:32.800Z,6.03
2023-02-19T11:52:21.210Z,5.55
2023-02-19T11:54:54.708Z,4.97
2023-02-19T11:57:39.300Z,5.13
2023-02-19T12:00:27.802Z,4.90
2023-02-19T12:03:23.598Z,4.72
2023-02-19T12:06:11.194Z,4.55
2023-02-19T12:09:08.242Z,5.05
2023-02-19T12:11:56.506Z,4.88
2023-02-19T12:15:07.330Z,5.20
2023-02-19T12:18:03.137Z,4.38
2023-02-19T12:20:40.806Z,4.72
2023-02-19T12:23:40.506Z,5.85
2023-02-19T12:26:22.224Z,4.95
2023-02-19T12:29:18.312Z,4.75
2023-02-19T12:34:43.049Z,3.92
2023-02-19T12:37:33.211Z,5.35
2023-02-19T12:40:18.663Z,4.25
2023-02-19T12:43:11.000Z,4.18
2023-02-19T12:45:45.974Z,4.45
2023-02-19T12:48:25.336Z,4.68
2023-02-19T12:50:58.632Z,4.38
2023-02-19T12:53:41.483Z,4.38
2023-02-19T12:56:17.204Z,5.15
2023-02-19T12:58:52.591Z,5.40
2023-02-19T13:01:27.700Z,5.03
2023-02-19T13:04:17.698Z,5.38
2023-02-19T13:06:52.436Z,4.97
2023-02-19T13:09:28.472Z,4.80
2023-02-19T13:12:03.187Z,4.75
2023-02-19T13:14:37.764Z,5.03
2023-02-19T13:17:20.770Z,4.80
2023-02-19T13:19:55.231Z,5.15
2023-02-19T13:22:49.039Z,5.47
2023-02-19T13:25:20.637Z,5.60
2023-02-19T13:28:11.477Z,5.78
2023-02-19T13:31:03.679Z,5.78
2023-02-19T13:33:42.326Z,5.22
2023-02-19T13:36:14.705Z,5.28
2023-02-19T13:38:46.404Z,5.13
2023-02-19T13:41:30.249Z,4.97
2023-02-19T13:44:03.643Z,5.93
2023-02-19T13:46:43.489Z,5.53
2023-02-19T13:49:49.948Z,5.32
2023-02-19T13:52:39.631Z,5.28
2023-02-19T13:55:46.829Z,5.20
2023-02-19T13:59:02.155Z,5.40
2023-02-19T14:02:04.534Z,5.32
2023-02-19T14:04:52.066Z,5.55
2023-02-19T14:08:02.155Z,5.07
2023-02-19T14:10:53.002Z,5.38
2023-02-19T14:14:11.213Z,5.90
2023-02-19T14:17:17.751Z,5.43
2023-02-19T14:20:01.540Z,6.47
2023-02-19T14:23:09.765Z,6.28
2023-02-19T14:25:52.803Z,5.30
2023-02-19T14:28:30.340Z,6.45
2023-02-19T14:31:01.927Z,5.93
2023-02-19T14:33:35.435Z,6.55
2023-02-19T14:36:15.845Z,6.95
2023-02-19T14:38:51.058Z,6.85
2023-02-19T14:43:53.268Z,7.20
2023-02-19T14:46:29.512Z,6.57
2023-02-19T14:49:06.347Z,6.93
2023-02-19T14:51:39.742Z,7.03
2023-02-19T14:54:15.948Z,6.78
2023-02-19T14:56:49.214Z,6.70
2023-02-19T14:59:27.151Z,7.93
2023-02-19T15:02:01.900Z,7.03
2023-02-19T15:04:37.407Z,6.97
2023-02-19T15:07:11.926Z,5.40
2023-02-19T15:09:45.402Z,7.13
2023-02-19T15:12:20.198Z,5.93
2023-02-19T15:14:51.046Z,6.25
2023-02-19T15:17:26.712Z,5.72
2023-02-19T15:19:56.902Z,6.72
2023-02-19T15:22:29.601Z,5.63
2023-02-19T15:25:01.752Z,5.50
2023-02-19T15:27:33.074Z,6.72
2023-02-19T15:30:02.198Z,6.38
2023-02-19T15:32:33.842Z,7.30
2023-02-19T15:35:05.583Z,6.80
2023-02-19T15:37:37.428Z,6.00
2023-02-19T15:40:09.440Z,7.40
2023-02-19T15:42:41.583Z,6.25
2023-02-19T15:45:21.924Z,6.65
2023-02-19T15:47:54.803Z,6.35
2023-02-19T15:50:26.885Z,6.40
2023-02-19T15:53:03.932Z,6.32
2023-02-19T15:55:38.213Z,6.43
2023-02-19T15:58:14.588Z,7.50
2023-02-19T16:00:48.509Z,7.25
2023-02-19T16:03:20.339Z,7.45
2023-02-19T16:06:00.625Z,6.38
2023-02-19T16:08:33.278Z,6.30
2023-02-19T16:11:04.581Z,5.90
2023-02-19T16:13:35.598Z,6.70
2023-02-19T16:16:15.428Z,6.78
2023-02-19T16:18:51.287Z,6.30
2023-02-19T16:21:24.695Z,5.78
2023-02-19T16:24:02.630Z,5.97
2023-02-19T16:26:40.090Z,5.88
2023-02-19T16:29:20.352Z,6.88
2023-02-19T16:31:51.366Z,7.32
2023-02-19T16:34:34.737Z,6.43
2023-02-19T16:37:04.623Z,5.53
2023-02-19T16:39:42.549Z,6.57
2023-02-19T16:42:15.967Z,7.78
2023-02-19T16:44:46.376Z,6.32
2023-02-19T16:47:33.169Z,5.65
2023-02-19T16:50:13.876Z,6.20
2023-02-19T16:52:52.677Z,6.30
2023-02-19T16:55:24.361Z,6.30
2023-02-19T16:57:56.449Z,5.78
2023-02-19T17:00:28.424Z,5.22
2023-02-19T17:03:09.332Z,6.30
2023-02-19T17:05:40.555Z,5.70
2023-02-19T17:08:34.052Z,5.78
2023-02-19T17:11:08.207Z,5.40
2023-02-19T17:13:37.538Z,5.82
2023-02-19T17:16:07.035Z,7.20
2023-02-19T17:18:36.602Z,5.80
2023-02-19T17:21:14.719Z,5.80
2023-02-19T17:23:43.748Z,5.90
2023-02-19T17:26:16.861Z,5.97
2023-02-19T17:28:45.906Z,5.75
2023-02-19T17:31:15.758Z,5.90
2023-02-19T17:33:45.313Z,6.18
2023-02-19T17:36:20.066Z,6.20
2023-02-19T17:38:49.490Z,6.25
2023-02-19T17:41:20.168Z,7.13
2023-02-19T17:43:50.979Z,6.43
2023-02-19T17:46:22.255Z,6.32
2023-02-19T17:48:51.591Z,6.07
2023-02-19T17:51:20.738Z,5.90
2023-02-19T17:53:49.853Z,6.22
2023-02-19T17:56:24.214Z,5.72
2023-02-19T17:58:56.018Z,5.95
2023-02-19T18:01:25.761Z,5.85
2023-02-19T18:03:54.926Z,5.55
2023-02-19T18:06:26.641Z,6.55
2023-02-19T18:08:56.198Z,5.45
2023-02-19T18:11:27.186Z,5.47
2023-02-19T18:13:56.458Z,6.20
2023-02-19T18:16:25.852Z,6.43
2023-02-19T18:18:55.427Z,5.85
2023-02-19T18:21:25.623Z,6.88
2023-02-19T18:23:55.036Z,6.32
2023-02-19T18:26:24.831Z,6.50
2023-02-19T18:29:01.743Z,6.22
2023-02-19T18:31:33.331Z,7.03
2023-02-19T18:34:02.493Z,7.00
2023-02-19T18:36:31.790Z,7.38
2023-02-19T18:39:00.979Z,6.10
2023-02-19T18:41:30.011Z,7.13
2023-02-19T18:44:00.784Z,6.40
2023-02-19T18:46:32.237Z,6.50
2023-02-19T18:49:01.650Z,7.43
2023-02-19T18:51:30.747Z,7.35
2023-02-19T18:54:01.830Z,7.75
2023-02-19T18:56:31.987Z,6.38
2023-02-19T18:59:04.449Z,6.22
2023-02-19T19:01:33.765Z,6.70
2023-02-19T19:04:03.565Z,7.13
2023-02-19T19:06:32.831Z,7.90
2023-02-19T19:09:02.069Z,7.70
2023-02-19T19:11:31.690Z,7.03
2023-02-19T19:14:01.057Z,6.88
2023-02-19T19:16:32.132Z,7.57
2023-02-19T19:19:01.456Z,7.80
2023-02-19T19:21:30.854Z,7.38
2023-02-19T19:23:59.991Z,7.15
2023-02-19T19:26:29.107Z,7.53
2023-02-19T19:28:58.214Z,8.35
2023-02-19T19:31:27.651Z,10.27
2023-02-19T19:33:58.415Z,6.45
2023-02-19T19:36:27.426Z,7.53
2023-02-19T19:38:56.498Z,6.95
2023-02-19T19:41:25.649Z,7.85
2023-02-19T19:43:55.641Z,7.75
2023-02-19T19:46:24.718Z,7.50
2023-02-19T19:48:54.154Z,7.70
2023-02-19T19:51:24.804Z,8.10
2023-02-19T19:53:53.864Z,8.23
2023-02-19T19:56:23.023Z,7.55
2023-02-19T19:58:52.054Z,6.55
2023-02-19T20:01:23.263Z,7.00
2023-02-19T20:03:52.358Z,6.65
2023-02-19T20:06:30.946Z,6.28
2023-02-19T20:09:00.449Z,7.28
2023-02-19T20:11:29.478Z,6.40
2023-02-19T20:13:58.493Z,7.57
2023-02-19T20:16:28.276Z,6.13
2023-02-19T20:18:57.781Z,7.38
2023-02-19T20:21:28.150Z,6.95
2023-02-19T20:23:57.361Z,7.28
2023-02-19T20:26:28.610Z,7.85
2023-02-19T20:28:58.284Z,6.88
2023-02-19T20:31:27.770Z,7.22
2023-02-19T20:33:57.135Z,7.53
2023-02-19T20:36:28.577Z,6.75
2023-02-19T20:38:59.436Z,6.45
2023-02-19T20:41:28.544Z,7.60
2023-02-19T20:43:57.533Z,7.15
2023-02-19T20:46:26.542Z,7.10
2023-02-19T20:48:55.551Z,6.65
2023-02-19T20:51:24.647Z,7.50
2023-02-19T20:53:53.640Z,7.15
2023-02-19T20:56:24.040Z,5.85
2023-02-19T20:58:53.289Z,5.38
2023-02-19T21:01:27.426Z,6.32
2023-02-19T21:03:56.644Z,6.15
2023-02-19T21:06:25.832Z,6.03
2023-02-19T21:08:54.770Z,7.32
2023-02-19T21:11:25.133Z,6.50
2023-02-19T21:13:56.829Z,5.85
2023-02-19T21:16:26.408Z,6.57
2023-02-19T21:18:55.563Z,5.45
2023-02-19T21:21:26.422Z,5.28
2023-02-19T21:23:56.266Z,5.88
2023-02-19T21:26:34.111Z,6.05
2023-02-19T21:29:03.312Z,4.82
2023-02-19T21:31:41.192Z,6.03
2023-02-19T21:34:13.022Z,5.55
2023-02-19T21:36:42.333Z,5.22
2023-02-19T21:39:13.400Z,6.35
2023-02-19T21:41:43.835Z,5.22
2023-02-19T21:44:12.834Z,6.30
2023-02-19T21:46:42.190Z,5.47
2023-02-19T21:49:11.829Z,6.18
2023-02-19T21:51:43.051Z,6.28
2023-02-19T21:54:17.060Z,6.15
2023-02-19T21:56:47.443Z,7.40
2023-02-19T21:59:16.759Z,7.88
2023-02-19T22:01:46.473Z,6.60
2023-02-19T22:04:17.811Z,6.68
2023-02-19T22:06:46.948Z,7.95
2023-02-19T22:09:16.602Z,6.88
2023-02-19T22:11:46.981Z,7.68
2023-02-19T22:14:16.314Z,7.80
2023-02-19T22:16:45.377Z,7.18
2023-02-19T22:19:14.763Z,6.82
2023-02-19T22:21:45.249Z,5.97
2023-02-19T22:24:19.771Z,6.85
2023-02-19T22:26:50.985Z,7.13
2023-02-19T22:29:19.979Z,7.13
2023-02-19T22:31:49.452Z,6.20
2023-02-19T22:34:18.603Z,6.50
2023-02-19T22:36:47.853Z,7.53
2023-02-19T22:39:20.014Z,6.85
2023-02-19T22:41:51.076Z,6.68
2023-02-19T22:44:20.461Z,6.55
2023-02-19T22:46:50.852Z,5.45
2023-02-19T22:49:20.574Z,6.53
2023-02-19T22:51:51.961Z,6.72
2023-02-19T22:54:26.914Z,5.63
2023-02-19T22:56:57.585Z,5.35
2023-02-19T22:59:26.576Z,5.90
2023-02-19T23:01:56.047Z,5.95
2023-02-19T23:04:26.266Z,5.38
2023-02-19T23:06:55.518Z,5.85
2023-02-19T23:09:27.121Z,6.00
2023-02-19T23:12:02.659Z,5.90
2023-02-19T23:14:32.049Z,5.78
2023-02-19T23:17:01.218Z,6.57
2023-02-19T23:19:30.548Z,5.85
2023-02-19T23:22:00.167Z,5.80
2023-02-19T23:24:29.105Z,6.55
2023-02-19T23:27:00.730Z,5.60
2023-02-19T23:29:31.025Z,4.95
2023-02-19T23:32:01.796Z,4.85
2023-02-19T23:34:30.913Z,6.22
2023-02-19T23:37:00.437Z,5.45
2023-02-19T23:39:30.066Z,5.72
2023-02-19T23:42:00.575Z,4.55
2023-02-19T23:44:29.578Z,5.07
2023-02-19T23:46:58.709Z,3.97
2023-02-19T23:49:27.824Z,4.63
2023-02-19T23:51:56.877Z,5.75
2023-02-19T23:54:25.878Z,4.97
2023-02-19T23:56:54.823Z,5.88
2023-02-19T23:59:25.503Z,4.47
